createdAt,value
2018-02-11T00:00:03.043Z,48.37
2018-02-11T00:02:29.771Z,49.70
2018-02-11T00:04:56.506Z,49.27
2018-02-11T00:07:23.225Z,48.87
2018-02-11T00:09:49.982Z,53.20
2018-02-11T00:12:16.700Z,47.27
2018-02-11T00:14:43.444Z,52.13
2018-02-11T00:17:10.184Z,48.37
2018-02-11T00:19:36.937Z,49.13
2018-02-11T00:22:03.663Z,48.60
2018-02-11T00:24:30.409Z,47.00
2018-02-11T00:26:57.141Z,45.80
2018-02-11T00:29:23.859Z,44.73
2018-02-11T00:31:50.598Z,44.53
2018-02-11T00:34:17.333Z,45.53
2018-02-11T00:36:49.780Z,47.77
2018-02-11T00:39:16.517Z,47.57
2018-02-11T00:41:43.217Z,44.90
2018-02-11T00:44:09.972Z,45.23
2018-02-11T00:46:36.692Z,45.10
2018-02-11T00:49:03.462Z,44.17
2018-02-11T00:51:30.204Z,44.00
2018-02-11T00:53:56.920Z,47.17
2018-02-11T00:56:23.663Z,44.50
2018-02-11T00:58:50.458Z,45.53
2018-02-11T01:01:17.161Z,42.37
2018-02-11T01:03:43.898Z,42.67
2018-02-11T01:06:10.620Z,39.03
2018-02-11T01:08:37.320Z,39.90
2018-02-11T01:11:04.073Z,39.83
2018-02-11T01:13:30.793Z,42.80
2018-02-11T01:15:57.537Z,41.07
2018-02-11T01:18:24.248Z,43.77
2018-02-11T01:20:50.989Z,43.33
2018-02-11T01:23:17.741Z,45.00
2018-02-11T01:25:44.444Z,41.57
2018-02-11T01:28:11.158Z,47.13
2018-02-11T01:30:37.865Z,45.13
2018-02-11T01:33:04.585Z,44.80
2018-02-11T01:35:31.328Z,44.27
2018-02-11T01:37:58.036Z,43.43
2018-02-11T01:40:24.799Z,43.70
2018-02-11T01:42:51.513Z,44.73
2018-02-11T01:45:18.221Z,44.20
2018-02-11T01:47:44.945Z,41.00
2018-02-11T01:50:15.597Z,45.97
2018-02-11T01:52:42.358Z,44.03
2018-02-11T01:55:09.075Z,42.70
2018-02-11T01:57:35.797Z,44.73
2018-02-11T02:00:02.538Z,44.30
2018-02-11T02:02:29.268Z,44.20
2018-02-11T02:04:56.017Z,44.57
2018-02-11T02:07:22.716Z,43.00
2018-02-11T02:09:49.454Z,45.27
2018-02-11T02:12:16.165Z,44.60
2018-02-11T02:14:42.870Z,44.00
2018-02-11T02:17:09.596Z,44.80
2018-02-11T02:19:36.350Z,42.13
2018-02-11T02:22:03.062Z,44.80
2018-02-11T02:24:29.791Z,41.77
2018-02-11T02:26:56.500Z,42.50
2018-02-11T02:29:23.231Z,45.37
2018-02-11T02:31:49.926Z,41.10
2018-02-11T02:34:16.630Z,47.37
2018-02-11T02:36:43.359Z,43.30
2018-02-11T02:39:10.059Z,44.30
2018-02-11T02:41:36.812Z,45.47
2018-02-11T02:44:03.584Z,45.07
2018-02-11T02:46:30.286Z,47.20
2018-02-11T02:48:57.013Z,45.50
2018-02-11T02:51:23.744Z,45.45
2018-02-11T02:53:50.451Z,44.40
2018-02-11T02:56:17.182Z,41.97
2018-02-11T02:58:43.894Z,44.15
2018-02-11T03:01:10.636Z,42.43
2018-02-11T03:03:37.373Z,43.47
2018-02-11T03:06:04.082Z,44.40
2018-02-11T03:08:30.824Z,44.88
2018-02-11T03:10:57.537Z,42.80
2018-02-11T03:13:24.282Z,41.87
2018-02-11T03:15:50.989Z,39.10
2018-02-11T03:18:17.729Z,44.47
2018-02-11T03:20:44.457Z,44.27
2018-02-11T03:23:11.202Z,44.70
2018-02-11T03:25:37.935Z,43.90
2018-02-11T03:28:04.646Z,42.10
2018-02-11T03:30:31.389Z,45.40
2018-02-11T03:32:58.116Z,44.03
2018-02-11T03:35:24.837Z,43.40
2018-02-11T03:37:51.559Z,41.90
2018-02-11T03:40:18.258Z,41.80
2018-02-11T03:42:45.023Z,42.67
2018-02-11T03:45:14.426Z,41.90
2018-02-11T03:47:41.149Z,40.50
2018-02-11T03:50:07.851Z,38.13
2018-02-11T03:52:34.601Z,40.70
2018-02-11T03:55:01.357Z,36.33
2018-02-11T03:57:28.089Z,35.73
2018-02-11T03:59:54.805Z,34.63
2018-02-11T04:02:21.538Z,36.00
2018-02-11T04:04:48.310Z,34.97
2018-02-11T04:07:15.041Z,37.57
2018-02-11T04:09:41.773Z,34.10
2018-02-11T04:12:08.493Z,37.00
2018-02-11T04:14:35.245Z,36.10
2018-02-11T04:17:01.969Z,36.30
2018-02-11T04:19:28.696Z,38.27
2018-02-11T04:21:55.437Z,32.10
2018-02-11T04:24:22.158Z,33.07
2018-02-11T04:26:48.868Z,36.10
2018-02-11T04:29:15.605Z,38.30
2018-02-11T04:31:42.345Z,34.97
2018-02-11T04:34:09.042Z,33.00
2018-02-11T04:36:35.786Z,34.40
2018-02-11T04:39:02.567Z,34.53
2018-02-11T04:41:29.290Z,34.70
2018-02-11T04:43:56.027Z,32.80
2018-02-11T04:46:22.753Z,34.57
2018-02-11T04:48:49.462Z,32.07
2018-02-11T04:51:16.191Z,34.80
2018-02-11T04:53:42.962Z,32.40
2018-02-11T04:56:09.716Z,27.35
2018-02-11T04:58:36.422Z,27.87
2018-02-11T05:01:03.179Z,24.45
2018-02-11T05:03:29.904Z,24.02
2018-02-11T05:05:56.612Z,24.08
2018-02-11T05:08:23.352Z,24.58
2018-02-11T05:10:50.080Z,26.67
2018-02-11T05:13:16.812Z,24.87
2018-02-11T05:15:43.597Z,27.67
2018-02-11T05:18:10.336Z,23.95
2018-02-11T05:20:37.093Z,25.25
2018-02-11T05:23:03.905Z,24.42
2018-02-11T05:25:30.731Z,23.12
2018-02-11T05:27:57.465Z,23.20
2018-02-11T05:30:24.209Z,24.65
2018-02-11T05:32:50.949Z,24.08
2018-02-11T05:35:17.660Z,23.08
2018-02-11T05:37:44.400Z,23.15
2018-02-11T05:40:11.142Z,23.95
2018-02-11T05:42:37.861Z,24.02
2018-02-11T05:45:04.589Z,23.30
2018-02-11T05:47:31.388Z,24.77
2018-02-11T05:49:58.140Z,23.20
2018-02-11T05:52:24.870Z,23.12
2018-02-11T05:54:51.586Z,22.62
2018-02-11T05:57:18.379Z,22.33
2018-02-11T05:59:45.113Z,24.40
2018-02-11T06:02:11.842Z,23.67
2018-02-11T06:04:38.608Z,25.02
2018-02-11T06:07:05.318Z,23.30
2018-02-11T06:09:32.035Z,24.83
2018-02-11T06:11:58.884Z,22.62
2018-02-11T06:14:25.614Z,22.08
2018-02-11T06:16:52.334Z,24.92
2018-02-11T06:19:19.074Z,23.83
2018-02-11T06:21:45.785Z,24.75
2018-02-11T06:24:12.540Z,25.02
2018-02-11T06:26:42.075Z,22.35
2018-02-11T06:29:08.797Z,24.42
2018-02-11T06:31:35.549Z,23.38
2018-02-11T06:34:02.283Z,23.50
2018-02-11T06:36:29.018Z,20.85
2018-02-11T06:38:55.767Z,24.85
2018-02-11T06:41:22.522Z,22.62
2018-02-11T06:43:49.304Z,22.95
2018-02-11T06:46:16.020Z,25.67
2018-02-11T06:48:42.755Z,26.77
2018-02-11T06:51:09.455Z,25.27
2018-02-11T06:53:36.226Z,22.65
2018-02-11T06:56:02.970Z,25.10
2018-02-11T06:58:29.715Z,26.60
2018-02-11T07:00:56.460Z,28.25
2018-02-11T07:03:23.198Z,26.95
2018-02-11T07:05:49.901Z,26.62
2018-02-11T07:08:16.620Z,26.00
2018-02-11T07:10:43.358Z,27.00
2018-02-11T07:13:10.091Z,26.92
2018-02-11T07:15:36.797Z,27.55
2018-02-11T07:18:03.551Z,25.60
2018-02-11T07:20:31.097Z,25.85
2018-02-11T07:22:57.821Z,25.90
2018-02-11T07:25:24.548Z,24.42
2018-02-11T07:27:51.259Z,25.35
2018-02-11T07:30:18.023Z,26.67
2018-02-11T07:32:44.812Z,25.58
2018-02-11T07:35:11.522Z,23.30
2018-02-11T07:37:38.258Z,22.37
2018-02-11T07:40:04.991Z,23.83
2018-02-11T07:42:31.702Z,22.62
2018-02-11T07:44:58.433Z,23.17
2018-02-11T07:47:25.161Z,24.37
2018-02-11T07:49:51.884Z,27.08
2018-02-11T07:52:18.651Z,28.23
2018-02-11T07:54:45.359Z,31.60
2018-02-11T07:57:12.080Z,29.03
2018-02-11T07:59:38.797Z,29.87
2018-02-11T08:02:05.553Z,30.60
2018-02-11T08:04:32.266Z,30.90
2018-02-11T08:06:59.000Z,31.27
2018-02-11T08:09:25.736Z,30.33
2018-02-11T08:11:52.517Z,30.37
2018-02-11T08:14:19.272Z,30.43
2018-02-11T08:16:45.989Z,28.52
2018-02-11T08:19:12.717Z,28.67
2018-02-11T08:21:39.445Z,30.80
2018-02-11T08:24:06.178Z,28.30
2018-02-11T08:26:32.906Z,29.40
2018-02-11T08:28:59.629Z,29.50
2018-02-11T08:31:26.371Z,30.60
2018-02-11T08:33:53.115Z,30.20
2018-02-11T08:36:19.822Z,27.70
2018-02-11T08:38:46.544Z,29.77
2018-02-11T08:41:13.245Z,26.20
2018-02-11T08:43:39.980Z,27.10
2018-02-11T08:46:06.717Z,25.80
2018-02-11T08:48:33.490Z,28.13
2018-02-11T08:51:00.214Z,26.80
2018-02-11T08:53:26.959Z,27.00
2018-02-11T08:55:54.434Z,26.00
2018-02-11T08:58:21.158Z,24.20
2018-02-11T09:00:47.918Z,24.90
2018-02-11T09:03:14.654Z,22.90
2018-02-11T09:05:41.372Z,21.67
2018-02-11T09:08:08.121Z,23.43
2018-02-11T09:10:34.851Z,22.00
2018-02-11T09:13:01.574Z,20.67
2018-02-11T09:15:28.343Z,20.07
2018-02-11T09:17:55.068Z,21.80
2018-02-11T09:20:21.813Z,20.87
2018-02-11T09:22:48.544Z,22.30
2018-02-11T09:25:15.263Z,25.53
2018-02-11T09:27:42.036Z,23.03
2018-02-11T09:30:08.765Z,22.30
2018-02-11T09:32:35.491Z,21.20
2018-02-11T09:35:02.223Z,21.80
2018-02-11T09:37:28.947Z,23.67
2018-02-11T09:39:55.668Z,17.43
2018-02-11T09:42:22.414Z,21.87
2018-02-11T09:44:49.129Z,20.50
2018-02-11T09:47:15.838Z,23.20
2018-02-11T09:49:42.590Z,25.70
2018-02-11T09:52:09.302Z,26.60
2018-02-11T09:54:36.020Z,26.60
2018-02-11T09:57:02.748Z,26.47
2018-02-11T09:59:29.466Z,22.87
2018-02-11T10:01:56.209Z,22.47
2018-02-11T10:04:22.917Z,23.10
2018-02-11T10:06:49.645Z,22.33
2018-02-11T10:09:16.381Z,19.87
2018-02-11T10:11:43.158Z,20.67
2018-02-11T10:14:09.897Z,22.57
2018-02-11T10:16:41.707Z,21.73
2018-02-11T10:19:08.424Z,21.20
2018-02-11T10:21:35.165Z,22.00
2018-02-11T10:24:01.929Z,18.37
2018-02-11T10:26:28.650Z,20.03
2018-02-11T10:28:55.374Z,20.40
2018-02-11T10:31:22.242Z,21.90
2018-02-11T10:33:48.959Z,20.43
2018-02-11T10:36:15.717Z,19.90
2018-02-11T10:38:42.478Z,19.00
2018-02-11T10:41:09.219Z,20.10
2018-02-11T10:43:35.950Z,19.23
2018-02-11T10:46:02.685Z,19.50
2018-02-11T10:48:29.454Z,18.57
2018-02-11T10:50:56.247Z,19.07
2018-02-11T10:53:22.987Z,17.67
2018-02-11T10:55:49.716Z,18.53
2018-02-11T10:58:16.461Z,17.87
2018-02-11T11:00:43.187Z,17.90
2018-02-11T11:03:09.933Z,17.50
2018-02-11T11:05:36.680Z,19.33
2018-02-11T11:08:03.403Z,19.97
2018-02-11T11:10:30.143Z,18.83
2018-02-11T11:12:56.929Z,17.10
2018-02-11T11:15:23.642Z,18.73
2018-02-11T11:17:50.356Z,17.70
2018-02-11T11:20:17.084Z,18.13
2018-02-11T11:22:43.796Z,18.80
2018-02-11T11:25:10.537Z,18.73
2018-02-11T11:27:37.270Z,17.63
2018-02-11T11:30:04.017Z,17.23
2018-02-11T11:32:30.755Z,18.67
2018-02-11T11:34:57.502Z,19.33
2018-02-11T11:37:24.228Z,17.70
2018-02-11T11:39:50.932Z,18.20
2018-02-11T11:42:17.645Z,16.60
2018-02-11T11:44:44.397Z,17.93
2018-02-11T11:47:11.231Z,18.40
2018-02-11T11:49:37.933Z,18.43
2018-02-11T11:52:04.704Z,14.67
2018-02-11T11:54:31.497Z,18.33
2018-02-11T11:56:58.247Z,18.90
2018-02-11T11:59:24.980Z,17.20
2018-02-11T12:01:51.687Z,16.17
2018-02-11T12:04:18.417Z,18.33
2018-02-11T12:06:45.149Z,16.40
2018-02-11T12:09:11.911Z,16.00
2018-02-11T12:11:38.667Z,16.07
2018-02-11T12:14:05.384Z,15.47
2018-02-11T12:16:32.146Z,15.03
2018-02-11T12:18:58.868Z,16.53
2018-02-11T12:21:25.617Z,14.77
2018-02-11T12:23:52.356Z,15.03
2018-02-11T12:26:19.093Z,13.60
2018-02-11T12:28:45.846Z,12.97
2018-02-11T12:31:12.645Z,13.40
2018-02-11T12:33:39.471Z,15.80
2018-02-11T12:36:06.238Z,14.60
2018-02-11T12:38:33.055Z,15.53
2018-02-11T12:41:00.108Z,14.00
2018-02-11T12:43:26.886Z,13.27
2018-02-11T12:45:53.673Z,15.23
2018-02-11T12:48:20.558Z,13.90
2018-02-11T12:50:47.309Z,13.93
2018-02-11T12:53:14.046Z,15.37
2018-02-11T12:55:41.358Z,15.10
2018-02-11T12:58:08.099Z,15.40
2018-02-11T13:00:34.828Z,15.40
2018-02-11T13:03:01.650Z,14.07
2018-02-11T13:05:28.380Z,14.07
2018-02-11T13:07:55.088Z,13.90
2018-02-11T13:10:22.173Z,14.03
2018-02-11T13:12:48.890Z,12.63
2018-02-11T13:15:15.608Z,13.87
2018-02-11T13:17:44.058Z,14.20
2018-02-11T13:20:10.808Z,14.73
2018-02-11T13:22:37.590Z,15.13
2018-02-11T13:25:04.297Z,17.63
2018-02-11T13:27:31.006Z,17.90
2018-02-11T13:29:57.730Z,17.57
2018-02-11T13:32:24.439Z,17.10
2018-02-11T13:34:51.179Z,17.60
2018-02-11T13:37:17.908Z,18.37
2018-02-11T13:39:44.614Z,18.37
2018-02-11T13:42:11.322Z,21.07
2018-02-11T13:44:38.061Z,17.40
2018-02-11T13:47:04.828Z,19.00
2018-02-11T13:49:31.599Z,18.93
2018-02-11T13:51:58.349Z,19.33
2018-02-11T13:54:25.069Z,18.67
2018-02-11T13:56:51.811Z,20.80
2018-02-11T13:59:18.577Z,20.90
2018-02-11T14:01:45.337Z,21.10
2018-02-11T14:04:12.068Z,22.30
2018-02-11T14:06:38.817Z,22.40
2018-02-11T14:09:05.548Z,20.40
2018-02-11T14:11:32.253Z,19.10
2018-02-11T14:13:59.005Z,21.80
2018-02-11T14:16:25.720Z,20.67
2018-02-11T14:18:52.478Z,22.00
2018-02-11T14:21:19.309Z,18.57
2018-02-11T14:23:46.038Z,19.80
2018-02-11T14:26:12.761Z,21.77
2018-02-11T14:28:39.509Z,19.20
2018-02-11T14:31:06.252Z,21.20
2018-02-11T14:33:32.968Z,20.80
2018-02-11T14:35:59.719Z,22.07
2018-02-11T14:38:26.453Z,21.23
2018-02-11T14:40:53.207Z,22.67
2018-02-11T14:43:19.930Z,20.80
2018-02-11T14:45:46.633Z,22.60
2018-02-11T14:48:13.367Z,23.10
2018-02-11T14:50:40.088Z,20.93
2018-02-11T14:53:06.817Z,20.00
2018-02-11T14:55:33.587Z,21.90
2018-02-11T14:58:00.315Z,20.47
2018-02-11T15:00:27.051Z,24.07
2018-02-11T15:02:53.770Z,23.43
2018-02-11T15:05:20.474Z,22.37
2018-02-11T15:07:47.207Z,23.60
2018-02-11T15:10:13.930Z,23.70
2018-02-11T15:12:40.696Z,25.00
2018-02-11T15:15:07.442Z,24.93
2018-02-11T15:17:34.162Z,26.47
2018-02-11T15:20:00.923Z,24.77
2018-02-11T15:22:27.665Z,24.27
2018-02-11T15:24:54.418Z,23.97
2018-02-11T15:27:21.138Z,23.50
2018-02-11T15:29:47.886Z,22.90
2018-02-11T15:32:14.625Z,21.40
2018-02-11T15:34:41.345Z,21.80
2018-02-11T15:37:08.097Z,21.93
2018-02-11T15:39:34.826Z,23.90
2018-02-11T15:42:01.568Z,21.77
2018-02-11T15:44:28.332Z,22.80
2018-02-11T15:46:55.037Z,24.17
2018-02-11T15:49:21.779Z,22.23
2018-02-11T15:51:48.508Z,23.00
2018-02-11T15:54:15.493Z,21.93
2018-02-11T15:56:42.216Z,21.23
2018-02-11T15:59:08.924Z,23.47
2018-02-11T16:01:35.705Z,26.40
2018-02-11T16:04:02.414Z,27.00
2018-02-11T16:06:29.124Z,20.53
2018-02-11T16:08:55.861Z,22.47
2018-02-11T16:11:22.568Z,21.50
2018-02-11T16:13:49.307Z,21.37
2018-02-11T16:16:16.032Z,24.20
2018-02-11T16:18:42.753Z,19.93
2018-02-11T16:21:09.487Z,22.50
2018-02-11T16:23:36.224Z,24.20
2018-02-11T16:26:02.944Z,22.70
2018-02-11T16:28:29.703Z,21.40
2018-02-11T16:30:56.401Z,20.80
2018-02-11T16:33:23.126Z,21.00
2018-02-11T16:35:49.910Z,21.67
2018-02-11T16:38:16.613Z,20.40
2018-02-11T16:40:43.367Z,22.13
2018-02-11T16:43:10.106Z,21.07
2018-02-11T16:45:36.824Z,21.37
2018-02-11T16:48:03.565Z,21.00
2018-02-11T16:50:30.278Z,22.17
2018-02-11T16:52:56.993Z,19.20
2018-02-11T16:55:23.821Z,17.53
2018-02-11T16:57:50.540Z,14.47
2018-02-11T17:00:17.256Z,15.60
2018-02-11T17:02:44.036Z,15.10
2018-02-11T17:05:10.795Z,13.23
2018-02-11T17:07:37.511Z,14.77
2018-02-11T17:10:04.301Z,12.70
2018-02-11T17:12:31.018Z,13.57
2018-02-11T17:14:57.779Z,13.67
2018-02-11T17:17:24.525Z,14.43
2018-02-11T17:19:51.343Z,15.67
2018-02-11T17:22:18.102Z,14.70
2018-02-11T17:24:44.815Z,15.10
2018-02-11T17:27:11.552Z,14.90
2018-02-11T17:29:38.293Z,15.10
2018-02-11T17:32:05.053Z,14.53
2018-02-11T17:34:31.819Z,14.30
2018-02-11T17:36:58.550Z,14.30
2018-02-11T17:39:25.294Z,17.20
2018-02-11T17:41:52.021Z,16.80
2018-02-11T17:44:18.736Z,16.80
2018-02-11T17:46:45.522Z,18.63
2018-02-11T17:49:12.256Z,19.00
2018-02-11T17:51:38.987Z,18.93
2018-02-11T17:54:05.742Z,19.17
2018-02-11T17:56:32.515Z,18.67
2018-02-11T17:58:59.273Z,20.20
2018-02-11T18:01:26.017Z,18.57
2018-02-11T18:03:52.788Z,19.70
2018-02-11T18:06:19.536Z,18.67
2018-02-11T18:08:46.255Z,17.57
2018-02-11T18:11:13.001Z,18.67
2018-02-11T18:13:39.739Z,20.53
2018-02-11T18:16:06.558Z,19.40
2018-02-11T18:18:33.467Z,18.57
2018-02-11T18:21:00.190Z,21.40
2018-02-11T18:23:27.070Z,20.63
2018-02-11T18:25:53.823Z,21.67
2018-02-11T18:28:20.536Z,18.83
2018-02-11T18:30:47.308Z,19.77
2018-02-11T18:33:14.178Z,18.83
2018-02-11T18:35:40.942Z,19.47
2018-02-11T18:38:07.694Z,20.10
2018-02-11T18:40:34.426Z,17.97
2018-02-11T18:43:01.174Z,20.07
2018-02-11T18:45:27.914Z,20.40
2018-02-11T18:47:54.643Z,19.80
2018-02-11T18:50:21.418Z,19.90
2018-02-11T18:52:48.124Z,19.80
2018-02-11T18:55:14.880Z,21.83
2018-02-11T18:57:41.610Z,21.33
2018-02-11T19:00:08.418Z,22.17
2018-02-11T19:02:35.168Z,22.83
2018-02-11T19:05:01.911Z,21.20
2018-02-11T19:07:28.629Z,21.10
2018-02-11T19:09:55.354Z,21.70
2018-02-11T19:12:22.166Z,20.83
2018-02-11T19:14:48.955Z,18.80
2018-02-11T19:17:15.763Z,19.33
2018-02-11T19:19:42.825Z,20.80
2018-02-11T19:22:09.566Z,20.37
2018-02-11T19:24:36.333Z,21.87
2018-02-11T19:27:03.056Z,21.73
2018-02-11T19:29:29.863Z,21.70
2018-02-11T19:31:56.590Z,20.43
2018-02-11T19:34:23.368Z,21.57
2018-02-11T19:36:50.122Z,22.23
2018-02-11T19:39:16.847Z,25.00
2018-02-11T19:41:43.627Z,24.07
2018-02-11T19:44:10.393Z,20.60
2018-02-11T19:46:37.124Z,20.23
2018-02-11T19:49:03.902Z,17.97
2018-02-11T19:51:30.647Z,18.37
2018-02-11T19:53:57.398Z,19.80
2018-02-11T19:56:24.182Z,18.97
2018-02-11T19:58:50.997Z,18.90
2018-02-11T20:01:17.748Z,18.80
2018-02-11T20:03:44.701Z,20.13
2018-02-11T20:06:11.443Z,19.63
2018-02-11T20:08:38.307Z,20.47
2018-02-11T20:11:05.064Z,17.93
2018-02-11T20:13:31.805Z,20.60
2018-02-11T20:15:58.649Z,20.10
2018-02-11T20:18:25.367Z,21.80
2018-02-11T20:20:52.096Z,21.53
2018-02-11T20:23:18.883Z,25.90
2018-02-11T20:25:45.611Z,20.90
2018-02-11T20:28:12.377Z,21.10
2018-02-11T20:30:39.144Z,22.60
2018-02-11T20:33:05.870Z,21.20
2018-02-11T20:35:32.602Z,23.47
2018-02-11T20:37:59.364Z,21.67
2018-02-11T20:40:26.091Z,22.90
2018-02-11T20:42:52.811Z,23.67
2018-02-11T20:45:19.560Z,20.40
2018-02-11T20:47:46.315Z,20.70
2018-02-11T20:50:13.036Z,22.67
2018-02-11T20:52:39.787Z,25.77
2018-02-11T20:55:06.507Z,25.23
2018-02-11T20:57:33.232Z,26.30
2018-02-11T20:59:59.982Z,26.20
2018-02-11T21:02:26.762Z,25.93
2018-02-11T21:04:53.480Z,23.70
2018-02-11T21:07:20.403Z,25.00
2018-02-11T21:09:47.113Z,25.50
2018-02-11T21:12:13.820Z,25.10
2018-02-11T21:14:40.567Z,24.77
2018-02-11T21:17:07.318Z,25.37
2018-02-11T21:19:34.069Z,25.43
2018-02-11T21:22:00.823Z,25.83
2018-02-11T21:24:27.550Z,24.43
2018-02-11T21:26:54.304Z,25.07
2018-02-11T21:29:21.014Z,25.90
2018-02-11T21:31:47.791Z,26.40
2018-02-11T21:34:14.614Z,25.83
2018-02-11T21:36:41.342Z,26.40
2018-02-11T21:39:08.107Z,26.80
2018-02-11T21:41:34.852Z,24.67
2018-02-11T21:44:01.590Z,25.37
2018-02-11T21:46:28.339Z,24.10
2018-02-11T21:48:55.077Z,25.13
2018-02-11T21:51:21.819Z,26.93
2018-02-11T21:53:48.540Z,26.63
2018-02-11T21:56:15.356Z,30.13
2018-02-11T21:58:42.094Z,29.13
2018-02-11T22:01:08.817Z,27.60
2018-02-11T22:03:35.579Z,26.13
2018-02-11T22:06:02.367Z,26.90
2018-02-11T22:08:29.102Z,27.00
2018-02-11T22:10:55.866Z,26.83
2018-02-11T22:13:22.646Z,29.13
2018-02-11T22:15:49.371Z,26.63
2018-02-11T22:18:16.120Z,26.60
2018-02-11T22:20:42.848Z,26.93
2018-02-11T22:23:09.612Z,26.60
2018-02-11T22:25:36.338Z,27.07
2018-02-11T22:28:03.099Z,22.90
2018-02-11T22:30:29.810Z,24.20
2018-02-11T22:32:56.577Z,21.93
2018-02-11T22:35:23.314Z,23.80
2018-02-11T22:37:50.060Z,25.73
2018-02-11T22:40:16.785Z,23.70
2018-02-11T22:42:43.497Z,24.40
2018-02-11T22:45:10.243Z,24.23
2018-02-11T22:47:36.981Z,24.85
2018-02-11T22:50:03.729Z,24.77
2018-02-11T22:52:30.482Z,23.70
2018-02-11T22:54:57.209Z,22.30
2018-02-11T22:57:23.945Z,23.70
2018-02-11T22:59:50.694Z,23.47
2018-02-11T23:02:17.431Z,23.73
2018-02-11T23:04:44.159Z,23.23
2018-02-11T23:07:10.886Z,25.87
2018-02-11T23:09:37.610Z,22.58
2018-02-11T23:12:04.356Z,22.47
2018-02-11T23:14:31.060Z,24.93
2018-02-11T23:16:57.782Z,22.87
2018-02-11T23:19:24.539Z,23.37
2018-02-11T23:21:51.263Z,24.10
2018-02-11T23:24:18.012Z,21.10
2018-02-11T23:26:44.742Z,23.83
2018-02-11T23:29:11.488Z,22.30
2018-02-11T23:31:38.220Z,21.70
2018-02-11T23:34:04.953Z,24.63
2018-02-11T23:36:31.708Z,26.00
2018-02-11T23:38:58.439Z,24.10
2018-02-11T23:41:25.185Z,25.13
2018-02-11T23:43:51.918Z,23.83
2018-02-11T23:46:18.663Z,24.63
2018-02-11T23:48:46.270Z,24.93
2018-02-11T23:51:13.029Z,22.95
2018-02-11T23:53:39.755Z,25.37
2018-02-11T23:56:06.455Z,25.87
2018-02-11T23:58:33.190Z,23.63
